createdAt,value
2018-07-30T00:01:00.764Z,3.57
2018-07-30T00:03:29.869Z,3.63
2018-07-30T00:05:58.481Z,3.10
2018-07-30T00:08:27.028Z,3.77
2018-07-30T00:10:55.650Z,3.10
2018-07-30T00:13:24.292Z,4.13
2018-07-30T00:15:52.785Z,2.97
2018-07-30T00:18:21.292Z,3.87
2018-07-30T00:20:49.740Z,3.33
2018-07-30T00:23:18.311Z,3.70
2018-07-30T00:25:46.792Z,3.80
2018-07-30T00:28:15.398Z,3.40
2018-07-30T00:30:43.976Z,3.20
2018-07-30T00:33:12.436Z,3.50
2018-07-30T00:35:40.908Z,3.50
2018-07-30T00:38:09.428Z,3.97
2018-07-30T00:40:37.913Z,3.27
2018-07-30T00:43:06.818Z,4.20
2018-07-30T00:45:35.355Z,4.17
2018-07-30T00:48:03.955Z,4.33
2018-07-30T00:50:33.123Z,4.00
2018-07-30T00:53:01.678Z,3.80
2018-07-30T00:55:30.189Z,3.90
2018-07-30T00:57:58.841Z,4.40
2018-07-30T01:00:27.376Z,4.33
2018-07-30T01:02:55.917Z,3.67
2018-07-30T01:05:24.401Z,3.53
2018-07-30T01:07:52.910Z,3.57
2018-07-30T01:10:21.388Z,3.23
2018-07-30T01:12:50.000Z,3.70
2018-07-30T01:15:18.466Z,3.17
2018-07-30T01:17:46.957Z,3.50
2018-07-30T01:20:15.453Z,3.47
2018-07-30T01:22:43.951Z,3.60
2018-07-30T01:25:12.473Z,3.60
2018-07-30T01:27:40.967Z,3.30
2018-07-30T01:30:09.617Z,3.67
2018-07-30T01:32:38.186Z,4.07
2018-07-30T01:35:06.668Z,3.63
2018-07-30T01:37:35.179Z,4.00
2018-07-30T01:40:03.833Z,3.50
2018-07-30T01:42:32.329Z,4.27
2018-07-30T01:45:00.858Z,4.47
2018-07-30T01:47:29.382Z,4.30
2018-07-30T01:49:57.978Z,4.03
2018-07-30T01:52:26.510Z,4.23
2018-07-30T01:54:55.029Z,4.17
2018-07-30T01:57:23.657Z,4.50
2018-07-30T01:59:52.152Z,4.00
2018-07-30T02:02:20.659Z,3.13
2018-07-30T02:04:49.510Z,4.43
2018-07-30T02:07:18.027Z,3.43
2018-07-30T02:09:46.563Z,4.00
2018-07-30T02:12:15.105Z,3.57
2018-07-30T02:14:43.880Z,3.73
2018-07-30T02:17:12.451Z,3.63
2018-07-30T02:19:41.647Z,4.13
2018-07-30T02:22:10.151Z,4.37
2018-07-30T02:24:38.638Z,4.20
2018-07-30T02:27:07.511Z,3.83
2018-07-30T02:29:36.023Z,2.97
2018-07-30T02:32:04.586Z,3.40
2018-07-30T02:34:33.290Z,3.53
2018-07-30T02:37:01.928Z,3.17
2018-07-30T02:39:30.550Z,3.37
2018-07-30T02:41:59.125Z,2.90
2018-07-30T02:44:27.774Z,3.33
2018-07-30T02:46:58.054Z,2.73
2018-07-30T02:49:28.263Z,3.13
2018-07-30T02:51:56.812Z,3.37
2018-07-30T02:54:25.583Z,2.97
2018-07-30T02:56:54.183Z,3.37
2018-07-30T02:59:22.679Z,3.30
2018-07-30T03:01:51.226Z,4.10
2018-07-30T03:04:19.717Z,3.70
2018-07-30T03:06:48.216Z,4.03
2018-07-30T03:09:16.751Z,3.80
2018-07-30T03:11:45.311Z,3.80
2018-07-30T03:14:13.870Z,4.00
2018-07-30T03:16:42.423Z,4.57
2018-07-30T03:19:10.934Z,3.90
2018-07-30T03:21:39.412Z,4.53
2018-07-30T03:24:07.986Z,4.93
2018-07-30T03:26:36.630Z,4.30
2018-07-30T03:29:05.167Z,4.73
2018-07-30T03:31:33.946Z,4.37
2018-07-30T03:34:02.445Z,4.73
2018-07-30T03:36:31.017Z,4.33
2018-07-30T03:38:59.641Z,3.83
2018-07-30T03:41:28.601Z,4.13
2018-07-30T03:43:57.276Z,4.17
2018-07-30T03:46:25.782Z,4.57
2018-07-30T03:48:54.474Z,4.13
2018-07-30T03:51:22.997Z,4.53
2018-07-30T03:53:51.774Z,4.70
2018-07-30T03:56:20.263Z,5.40
2018-07-30T03:58:48.811Z,4.67
2018-07-30T04:01:17.447Z,5.40
2018-07-30T04:03:46.014Z,4.67
2018-07-30T04:06:14.739Z,5.40
2018-07-30T04:08:43.827Z,5.27
2018-07-30T04:11:12.327Z,6.03
2018-07-30T04:13:40.919Z,5.90
2018-07-30T04:16:09.577Z,6.30
2018-07-30T04:18:38.196Z,6.03
2018-07-30T04:21:06.691Z,5.90
2018-07-30T04:23:35.249Z,5.70
2018-07-30T04:26:04.726Z,6.50
2018-07-30T04:28:33.654Z,6.30
2018-07-30T04:31:02.157Z,5.97
2018-07-30T04:33:30.852Z,7.60
2018-07-30T04:35:59.509Z,5.73
2018-07-30T04:38:28.100Z,6.47
2018-07-30T04:40:56.742Z,5.70
2018-07-30T04:43:25.224Z,6.10
2018-07-30T04:45:53.767Z,5.27
2018-07-30T04:48:22.268Z,6.37
2018-07-30T04:50:51.788Z,5.57
2018-07-30T04:53:20.346Z,5.70
2018-07-30T04:55:48.841Z,5.97
2018-07-30T04:58:17.376Z,6.00
2018-07-30T05:00:45.950Z,6.10
2018-07-30T05:03:14.532Z,5.67
2018-07-30T05:05:43.179Z,5.07
2018-07-30T05:08:11.670Z,5.53
2018-07-30T05:10:40.165Z,5.73
2018-07-30T05:13:09.842Z,6.07
2018-07-30T05:15:38.399Z,6.13
2018-07-30T05:18:06.925Z,5.50
2018-07-30T05:20:35.673Z,5.77
2018-07-30T05:23:04.307Z,5.20
2018-07-30T05:25:32.928Z,4.73
2018-07-30T05:28:01.987Z,4.70
2018-07-30T05:30:30.540Z,5.10
2018-07-30T05:32:59.198Z,5.87
2018-07-30T05:35:28.081Z,4.70
2018-07-30T05:37:56.563Z,4.97
2018-07-30T05:40:25.178Z,5.17
2018-07-30T05:42:53.849Z,4.90
2018-07-30T05:45:22.286Z,5.37
2018-07-30T05:47:50.914Z,3.90
2018-07-30T05:50:19.435Z,4.57
2018-07-30T05:52:47.933Z,5.70
2018-07-30T05:55:16.536Z,4.30
2018-07-30T05:57:45.015Z,4.30
2018-07-30T06:00:13.553Z,5.10
2018-07-30T06:02:42.090Z,3.90
2018-07-30T06:05:11.178Z,3.80
2018-07-30T06:07:39.737Z,3.70
2018-07-30T06:10:08.252Z,4.90
2018-07-30T06:12:37.136Z,4.13
2018-07-30T06:15:06.763Z,4.70
2018-07-30T06:17:35.275Z,4.20
2018-07-30T06:20:04.013Z,4.60
2018-07-30T06:22:32.530Z,3.90
2018-07-30T06:25:01.033Z,4.00
2018-07-30T06:27:29.650Z,4.10
2018-07-30T06:29:58.133Z,4.50
2018-07-30T06:32:26.645Z,3.77
2018-07-30T06:34:55.146Z,4.17
2018-07-30T06:37:23.779Z,4.00
2018-07-30T06:39:52.514Z,4.67
2018-07-30T06:42:21.115Z,5.23
2018-07-30T06:44:49.666Z,4.40
2018-07-30T06:47:18.168Z,4.90
2018-07-30T06:49:46.711Z,4.83
2018-07-30T06:52:15.187Z,4.77
2018-07-30T06:54:43.738Z,4.60
2018-07-30T06:57:12.266Z,4.95
2018-07-30T06:59:40.804Z,4.97
2018-07-30T07:02:10.294Z,3.62
2018-07-30T07:04:38.865Z,3.58
2018-07-30T07:07:07.444Z,4.40
2018-07-30T07:09:36.058Z,2.90
2018-07-30T07:12:04.699Z,3.95
2018-07-30T07:14:33.254Z,3.30
2018-07-30T07:17:01.799Z,3.50
2018-07-30T07:19:31.230Z,3.08
2018-07-30T07:22:00.153Z,3.10
2018-07-30T07:24:28.694Z,2.90
2018-07-30T07:26:57.231Z,2.70
2018-07-30T07:29:25.716Z,3.30
2018-07-30T07:31:54.274Z,3.10
2018-07-30T07:34:22.822Z,2.87
2018-07-30T07:36:51.302Z,2.67
2018-07-30T07:39:20.498Z,1.80
2018-07-30T07:41:49.052Z,2.37
2018-07-30T07:44:17.643Z,2.87
2018-07-30T07:46:46.173Z,3.10
2018-07-30T07:49:14.665Z,2.80
2018-07-30T07:51:43.231Z,2.30
2018-07-30T07:54:11.793Z,3.10
2018-07-30T07:56:40.337Z,2.93
2018-07-30T07:59:08.972Z,2.50
2018-07-30T08:01:38.102Z,2.77
2018-07-30T08:04:06.618Z,2.60
2018-07-30T08:06:35.255Z,2.60
2018-07-30T08:09:03.965Z,3.20
2018-07-30T08:11:32.822Z,2.50
2018-07-30T08:14:01.390Z,2.80
2018-07-30T08:16:29.909Z,2.60
2018-07-30T08:18:58.442Z,2.27
2018-07-30T08:21:26.977Z,3.10
2018-07-30T08:23:55.483Z,2.50
2018-07-30T08:26:24.051Z,3.10
2018-07-30T08:28:52.853Z,2.80
2018-07-30T08:31:21.375Z,2.83
2018-07-30T08:33:49.936Z,2.93
2018-07-30T08:36:18.672Z,3.10
2018-07-30T08:38:47.383Z,2.90
2018-07-30T08:41:15.941Z,2.60
2018-07-30T08:43:44.444Z,2.97
2018-07-30T08:46:13.015Z,2.93
2018-07-30T08:48:41.877Z,2.57
2018-07-30T08:51:10.406Z,3.30
2018-07-30T08:53:38.878Z,3.30
2018-07-30T08:56:07.491Z,2.67
2018-07-30T08:58:35.988Z,3.63
2018-07-30T09:01:04.642Z,2.40
2018-07-30T09:03:33.158Z,3.43
2018-07-30T09:06:01.748Z,2.50
2018-07-30T09:08:30.365Z,3.40
2018-07-30T09:10:58.920Z,3.07
2018-07-30T09:13:27.465Z,2.87
2018-07-30T09:15:57.190Z,24.37
2018-07-30T09:18:25.954Z,3.33
2018-07-30T09:20:54.874Z,2.60
2018-07-30T09:23:23.474Z,2.90
2018-07-30T09:25:51.970Z,2.57
2018-07-30T09:28:20.490Z,2.87
2018-07-30T09:30:48.977Z,3.67
2018-07-30T09:33:17.593Z,2.70
2018-07-30T09:35:46.118Z,3.30
2018-07-30T09:38:14.616Z,3.50
2018-07-30T09:40:43.097Z,2.57
2018-07-30T09:43:11.675Z,2.80
2018-07-30T09:45:40.170Z,2.83
2018-07-30T09:48:08.686Z,3.50
2018-07-30T09:50:37.305Z,3.40
2018-07-30T09:53:05.913Z,2.60
2018-07-30T09:55:34.474Z,2.80
2018-07-30T09:58:03.123Z,3.50
2018-07-30T10:00:37.025Z,3.50
2018-07-30T10:03:05.527Z,3.27
2018-07-30T10:05:34.031Z,3.87
2018-07-30T10:08:02.703Z,3.47
2018-07-30T10:10:31.388Z,3.23
2018-07-30T10:12:59.902Z,2.87
2018-07-30T10:15:28.497Z,3.20
2018-07-30T10:17:57.192Z,3.03
2018-07-30T10:20:25.731Z,2.30
2018-07-30T10:22:54.217Z,2.92
2018-07-30T10:25:22.810Z,3.08
2018-07-30T10:27:51.326Z,3.20
2018-07-30T10:30:19.793Z,3.40
2018-07-30T10:32:48.317Z,2.95
2018-07-30T10:35:16.791Z,2.90
2018-07-30T10:37:45.380Z,2.72
2018-07-30T10:40:13.911Z,2.70
2018-07-30T10:42:42.423Z,2.70
2018-07-30T10:45:10.962Z,3.00
2018-07-30T10:47:39.543Z,3.12
2018-07-30T10:50:08.045Z,2.85
2018-07-30T10:52:36.517Z,3.20
2018-07-30T10:55:05.100Z,3.40
2018-07-30T10:57:33.618Z,3.70
2018-07-30T11:00:02.287Z,3.30
2018-07-30T11:02:30.842Z,2.75
2018-07-30T11:04:59.323Z,2.85
2018-07-30T11:07:27.893Z,2.98
2018-07-30T11:09:56.414Z,2.33
2018-07-30T11:12:24.966Z,3.73
2018-07-30T11:14:53.579Z,2.60
2018-07-30T11:17:22.046Z,2.80
2018-07-30T11:19:50.575Z,3.42
2018-07-30T11:22:19.086Z,3.20
2018-07-30T11:24:47.663Z,2.80
2018-07-30T11:27:16.149Z,2.90
2018-07-30T11:29:44.644Z,3.05
2018-07-30T11:32:13.196Z,2.75
2018-07-30T11:34:41.803Z,2.65
2018-07-30T11:37:10.346Z,2.80
2018-07-30T11:39:38.863Z,2.52
2018-07-30T11:42:07.607Z,2.60
2018-07-30T11:44:36.122Z,2.43
2018-07-30T11:47:04.710Z,2.58
2018-07-30T11:49:33.255Z,3.30
2018-07-30T11:52:01.762Z,2.60
2018-07-30T11:54:30.742Z,3.08
2018-07-30T11:56:59.204Z,3.10
2018-07-30T11:59:27.745Z,3.22
2018-07-30T12:01:56.254Z,3.70
2018-07-30T12:04:24.774Z,3.37
2018-07-30T12:06:53.375Z,2.80
2018-07-30T12:09:22.184Z,3.72
2018-07-30T12:11:50.792Z,3.35
2018-07-30T12:14:19.385Z,3.35
2018-07-30T12:16:47.890Z,3.27
2018-07-30T12:19:16.448Z,4.40
2018-07-30T12:21:44.996Z,3.58
2018-07-30T12:24:13.510Z,3.90
2018-07-30T12:26:42.054Z,3.27
2018-07-30T12:29:10.679Z,2.90
2018-07-30T12:31:39.178Z,2.80
2018-07-30T12:34:07.709Z,3.30
2018-07-30T12:36:36.360Z,4.55
2018-07-30T12:39:08.174Z,3.42
2018-07-30T12:41:37.146Z,3.40
2018-07-30T12:44:05.893Z,3.90
2018-07-30T12:46:34.449Z,3.85
2018-07-30T12:49:03.187Z,3.58
2018-07-30T12:51:31.751Z,4.85
2018-07-30T12:54:00.272Z,3.67
2018-07-30T12:56:28.788Z,3.15
2018-07-30T12:58:57.262Z,3.42
2018-07-30T13:01:25.793Z,3.95
2018-07-30T13:03:54.354Z,3.92
2018-07-30T13:06:22.987Z,3.52
2018-07-30T13:08:51.504Z,4.50
2018-07-30T13:11:20.089Z,3.85
2018-07-30T13:13:48.700Z,3.77
2018-07-30T13:16:17.288Z,3.35
2018-07-30T13:18:45.944Z,3.65
2018-07-30T13:21:14.598Z,4.20
2018-07-30T13:23:43.165Z,4.33
2018-07-30T13:26:11.650Z,3.80
2018-07-30T13:28:40.146Z,3.90
2018-07-30T13:31:08.994Z,4.87
2018-07-30T13:33:37.502Z,3.40
2018-07-30T13:36:06.025Z,3.58
2018-07-30T13:38:34.575Z,3.83
2018-07-30T13:41:03.062Z,3.37
2018-07-30T13:43:31.892Z,3.45
2018-07-30T13:46:00.367Z,3.20
2018-07-30T13:48:28.853Z,3.10
2018-07-30T13:50:57.421Z,2.75
2018-07-30T13:53:25.917Z,3.00
2018-07-30T13:55:54.395Z,2.60
2018-07-30T13:58:22.923Z,2.72
2018-07-30T14:00:51.421Z,2.50
2018-07-30T14:03:20.022Z,2.60
2018-07-30T14:05:48.546Z,2.50
2018-07-30T14:08:17.038Z,3.20
2018-07-30T14:10:45.926Z,2.85
2018-07-30T14:13:14.402Z,2.72
2018-07-30T14:15:42.950Z,2.83
2018-07-30T14:18:11.599Z,2.37
2018-07-30T14:20:40.197Z,2.58
2018-07-30T14:23:08.743Z,1.90
2018-07-30T14:25:37.294Z,2.62
2018-07-30T14:28:06.169Z,2.50
2018-07-30T14:30:34.667Z,3.05
2018-07-30T14:33:03.207Z,2.30
2018-07-30T14:35:31.789Z,2.77
2018-07-30T14:38:00.245Z,2.67
2018-07-30T14:40:28.827Z,2.70
2018-07-30T14:42:57.378Z,2.08
2018-07-30T14:45:25.954Z,3.20
2018-07-30T14:47:54.426Z,2.90
2018-07-30T14:50:22.900Z,3.08
2018-07-30T14:52:51.447Z,2.67
2018-07-30T14:55:26.588Z,2.35
2018-07-30T14:57:55.141Z,2.98
2018-07-30T15:00:23.634Z,2.58
2018-07-30T15:02:52.510Z,2.55
2018-07-30T15:05:21.642Z,2.50
2018-07-30T15:07:50.701Z,2.98
2018-07-30T15:10:19.262Z,2.90
2018-07-30T15:12:47.773Z,3.10
2018-07-30T15:15:16.324Z,2.77
2018-07-30T15:17:44.907Z,3.00
2018-07-30T15:20:13.458Z,2.50
2018-07-30T15:22:42.087Z,2.05
2018-07-30T15:25:10.605Z,2.05
2018-07-30T15:27:39.135Z,2.20
2018-07-30T15:30:07.825Z,2.50
2018-07-30T15:32:36.321Z,1.80
2018-07-30T15:35:05.010Z,1.82
2018-07-30T15:37:33.699Z,1.90
2018-07-30T15:40:02.377Z,1.92
2018-07-30T15:42:30.875Z,1.80
2018-07-30T15:44:59.377Z,2.05
2018-07-30T15:47:28.187Z,2.25
2018-07-30T15:49:56.684Z,1.80
2018-07-30T15:52:25.340Z,2.15
2018-07-30T15:54:54.437Z,2.12
2018-07-30T15:57:22.915Z,2.60
2018-07-30T15:59:51.402Z,2.27
2018-07-30T16:02:20.062Z,26.17
2018-07-30T16:04:48.575Z,2.67
2018-07-30T16:07:17.073Z,2.00
2018-07-30T16:09:45.561Z,2.75
2018-07-30T16:12:14.034Z,1.65
2018-07-30T16:14:42.589Z,2.22
2018-07-30T16:17:11.063Z,1.70
2018-07-30T16:19:39.585Z,2.33
2018-07-30T16:22:08.130Z,1.98
2018-07-30T16:24:36.650Z,2.17
2018-07-30T16:27:05.180Z,2.00
2018-07-30T16:29:33.710Z,2.33
2018-07-30T16:32:02.265Z,1.90
2018-07-30T16:34:30.812Z,1.77
2018-07-30T16:36:59.337Z,2.20
2018-07-30T16:39:28.059Z,2.10
2018-07-30T16:41:57.229Z,2.10
2018-07-30T16:44:26.462Z,1.70
2018-07-30T16:46:55.834Z,2.08
2018-07-30T16:49:25.168Z,2.25
2018-07-30T16:51:54.185Z,2.17
2018-07-30T16:54:23.184Z,2.02
2018-07-30T16:56:52.338Z,2.30
2018-07-30T16:59:21.322Z,2.10
2018-07-30T17:01:50.650Z,2.10
2018-07-30T17:04:20.370Z,2.12
2018-07-30T17:06:49.505Z,1.85
2018-07-30T17:09:18.099Z,2.67
2018-07-30T17:11:46.684Z,1.80
2018-07-30T17:14:15.207Z,2.33
2018-07-30T17:16:43.733Z,2.25
2018-07-30T17:19:12.424Z,2.40
2018-07-30T17:21:40.922Z,2.17
2018-07-30T17:24:09.450Z,2.22
2018-07-30T17:26:37.953Z,2.12
2018-07-30T17:29:06.486Z,2.60
2018-07-30T17:31:34.992Z,2.10
2018-07-30T17:34:03.766Z,2.42
2018-07-30T17:36:38.969Z,2.30
2018-07-30T17:39:09.025Z,2.30
2018-07-30T17:57:48.021Z,2.70
2018-07-30T18:00:16.606Z,2.40
2018-07-30T18:02:45.486Z,2.20
2018-07-30T18:05:18.176Z,2.58
2018-07-30T18:07:47.634Z,2.83
2018-07-30T18:10:16.216Z,3.55
2018-07-30T18:12:44.800Z,2.40
2018-07-30T18:15:13.450Z,3.90
2018-07-30T18:17:41.983Z,3.02
2018-07-30T18:20:10.538Z,2.65
2018-07-30T18:22:39.170Z,2.67
2018-07-30T18:25:07.692Z,3.08
2018-07-30T18:27:36.307Z,2.85
2018-07-30T18:30:06.021Z,3.47
2018-07-30T18:32:34.685Z,3.10
2018-07-30T18:35:03.363Z,2.85
2018-07-30T18:37:31.923Z,2.30
2018-07-30T18:40:00.486Z,2.17
2018-07-30T18:42:29.043Z,2.60
2018-07-30T18:44:57.581Z,2.40
2018-07-30T18:47:26.151Z,3.58
2018-07-30T18:49:54.811Z,3.15
2018-07-30T18:52:23.377Z,2.20
2018-07-30T18:54:52.170Z,2.30
2018-07-30T18:57:20.641Z,2.60
2018-07-30T18:59:49.170Z,3.15
2018-07-30T19:02:17.694Z,3.13
2018-07-30T19:04:46.281Z,3.20
2018-07-30T19:07:14.817Z,3.10
2018-07-30T19:09:43.460Z,2.70
2018-07-30T19:12:11.977Z,3.70
2018-07-30T19:14:40.565Z,3.70
2018-07-30T19:17:09.489Z,3.40
2018-07-30T19:19:38.133Z,3.13
2018-07-30T19:22:07.334Z,3.47
2018-07-30T19:24:35.893Z,3.60
2018-07-30T19:27:04.434Z,3.40
2018-07-30T19:29:33.063Z,2.97
2018-07-30T19:32:01.616Z,3.60
2018-07-30T19:34:30.258Z,4.33
2018-07-30T19:36:58.791Z,3.77
2018-07-30T19:39:27.349Z,3.90
2018-07-30T19:41:55.853Z,2.90
2018-07-30T19:44:24.412Z,3.30
2018-07-30T19:46:52.899Z,3.70
2018-07-30T19:49:21.495Z,4.47
2018-07-30T19:51:50.032Z,5.23
2018-07-30T19:54:18.592Z,4.33
2018-07-30T19:56:47.163Z,3.70
2018-07-30T19:59:15.678Z,3.57
2018-07-30T20:01:44.236Z,4.63
2018-07-30T20:04:12.802Z,4.40
2018-07-30T20:06:41.322Z,4.40
2018-07-30T20:09:11.508Z,3.60
2018-07-30T20:11:40.079Z,4.47
2018-07-30T20:14:08.647Z,4.30
2018-07-30T20:16:37.794Z,3.63
2018-07-30T20:19:06.365Z,4.30
2018-07-30T20:21:35.897Z,4.43
2018-07-30T20:24:04.426Z,3.80
2018-07-30T20:26:33.406Z,3.57
2018-07-30T20:29:01.938Z,3.90
2018-07-30T20:31:30.441Z,3.70
2018-07-30T20:33:59.546Z,3.90
2018-07-30T20:36:28.029Z,3.60
2018-07-30T20:38:56.557Z,3.83
2018-07-30T20:41:28.210Z,3.93
2018-07-30T20:43:56.986Z,2.90
2018-07-30T20:46:25.520Z,3.30
2018-07-30T20:48:54.003Z,2.83
2018-07-30T20:51:22.545Z,3.10
2018-07-30T20:53:51.092Z,4.00
2018-07-30T20:56:19.657Z,3.50
2018-07-30T20:58:48.497Z,3.33
2018-07-30T21:01:17.133Z,2.97
2018-07-30T21:03:45.688Z,2.63
2018-07-30T21:06:14.279Z,3.00
2018-07-30T21:08:43.066Z,2.93
2018-07-30T21:11:11.674Z,3.00
2018-07-30T21:13:40.233Z,3.10
2018-07-30T21:16:08.798Z,3.50
2018-07-30T21:18:37.633Z,3.03
2018-07-30T21:21:07.060Z,3.10
2018-07-30T21:23:35.642Z,3.20
2018-07-30T21:26:04.263Z,2.80
2018-07-30T21:28:33.001Z,2.70
2018-07-30T21:31:01.590Z,3.30
2018-07-30T21:33:30.131Z,2.97
2018-07-30T21:35:58.665Z,2.83
2018-07-30T21:38:27.281Z,2.33
2018-07-30T21:40:55.912Z,2.90
2018-07-30T21:43:24.449Z,2.80
2018-07-30T21:45:52.999Z,3.10
2018-07-30T21:48:21.519Z,2.80
2018-07-30T21:50:50.066Z,3.43
2018-07-30T21:53:18.721Z,3.03
2018-07-30T21:55:47.311Z,2.53
2018-07-30T21:58:15.851Z,3.13
2018-07-30T22:00:49.778Z,3.00
2018-07-30T22:03:18.393Z,2.90
2018-07-30T22:05:51.088Z,3.10
2018-07-30T22:08:19.640Z,3.10
2018-07-30T22:10:48.199Z,2.93
2018-07-30T22:13:16.692Z,3.27
2018-07-30T22:15:45.278Z,2.90
2018-07-30T22:18:13.811Z,3.10
2018-07-30T22:20:42.454Z,2.90
2018-07-30T22:23:10.950Z,3.20
2018-07-30T22:25:39.743Z,3.37
2018-07-30T22:28:08.422Z,3.67
2018-07-30T22:30:37.103Z,3.53
2018-07-30T22:33:05.649Z,3.50
2018-07-30T22:35:34.138Z,2.90
2018-07-30T22:38:02.737Z,3.77
2018-07-30T22:40:31.348Z,4.33
2018-07-30T22:42:59.880Z,4.33
2018-07-30T22:45:28.389Z,4.77
2018-07-30T22:47:56.969Z,5.73
2018-07-30T22:50:25.498Z,5.53
2018-07-30T22:52:54.037Z,6.23
2018-07-30T22:55:22.573Z,7.37
2018-07-30T22:57:51.071Z,7.70
2018-07-30T23:00:19.664Z,7.43
2018-07-30T23:02:48.248Z,7.37
2018-07-30T23:05:16.730Z,8.43
2018-07-30T23:07:45.520Z,10.37
2018-07-30T23:10:14.055Z,12.43
2018-07-30T23:12:42.730Z,11.40
2018-07-30T23:15:11.361Z,13.07
2018-07-30T23:17:39.979Z,14.70
2018-07-30T23:20:08.563Z,15.37
2018-07-30T23:22:37.118Z,16.07
2018-07-30T23:25:05.994Z,18.50
2018-07-30T23:27:34.570Z,16.20
2018-07-30T23:30:03.622Z,17.27
2018-07-30T23:32:32.105Z,17.63
2018-07-30T23:35:00.650Z,17.87
2018-07-30T23:37:28.141Z,19.87
2018-07-30T23:39:56.710Z,17.97
2018-07-30T23:42:25.850Z,17.30
2018-07-30T23:44:54.401Z,17.27
2018-07-30T23:47:22.966Z,15.90
2018-07-30T23:49:51.518Z,15.07
2018-07-30T23:52:20.241Z,15.50
2018-07-30T23:54:48.780Z,14.10
2018-07-30T23:57:17.288Z,13.57
2018-07-30T23:59:45.805Z,12.80
